createdAt,value
2018-04-01T00:01:02.035Z,3.45
2018-04-01T00:02:04.666Z,3.30
2018-04-01T00:03:08.424Z,3.50
2018-04-01T00:04:11.023Z,4.13
2018-04-01T00:05:14.405Z,4.05
2018-04-01T00:06:17.808Z,4.65
2018-04-01T00:07:21.165Z,4.30
2018-04-01T00:08:23.814Z,3.87
2018-04-01T00:09:26.423Z,3.65
2018-04-01T00:10:29.810Z,3.40
2018-04-01T00:11:33.191Z,3.50
2018-04-01T00:12:36.545Z,3.40
2018-04-01T00:13:39.130Z,3.97
2018-04-01T00:14:41.744Z,3.97
2018-04-01T00:15:44.679Z,4.07
2018-04-01T00:16:48.074Z,3.50
2018-04-01T00:17:51.447Z,3.60
2018-04-01T00:18:54.031Z,4.05
2018-04-01T00:19:57.403Z,4.30
2018-04-01T00:21:01.095Z,3.60
2018-04-01T00:22:04.434Z,3.58
2018-04-01T00:23:07.065Z,3.50
2018-04-01T00:24:09.706Z,4.10
2018-04-01T00:25:13.038Z,3.70
2018-04-01T00:26:15.669Z,3.90
2018-04-01T00:27:19.380Z,4.53
2018-04-01T00:28:21.984Z,4.50
2018-04-01T00:29:24.560Z,4.68
2018-04-01T00:30:27.210Z,5.35
2018-04-01T00:31:29.778Z,4.87
2018-04-01T00:32:32.370Z,5.20
2018-04-01T00:33:34.938Z,4.82
2018-04-01T00:34:37.515Z,4.80
2018-04-01T00:35:40.230Z,4.90
2018-04-01T00:36:42.862Z,4.78
2018-04-01T00:37:46.244Z,5.18
2018-04-01T00:38:49.580Z,5.10
2018-04-01T00:39:52.196Z,5.25
2018-04-01T00:40:55.567Z,5.70
2018-04-01T00:41:58.157Z,5.47
2018-04-01T00:43:00.756Z,5.95
2018-04-01T00:44:03.398Z,5.87
2018-04-01T00:45:06.773Z,5.35
2018-04-01T00:46:10.124Z,5.40
2018-04-01T00:47:12.723Z,6.20
2018-04-01T00:48:16.144Z,5.82
2018-04-01T00:49:18.733Z,6.70
2018-04-01T00:50:21.765Z,5.30
2018-04-01T00:51:25.100Z,5.75
2018-04-01T00:52:27.672Z,6.15
2018-04-01T00:53:30.319Z,6.33
2018-04-01T00:54:32.920Z,7.22
2018-04-01T00:55:35.497Z,8.20
2018-04-01T00:56:38.076Z,7.93
2018-04-01T00:57:41.412Z,6.67
2018-04-01T00:58:44.060Z,6.10
2018-04-01T00:59:46.625Z,6.20
2018-04-01T01:00:49.238Z,6.60
2018-04-01T01:01:51.834Z,6.18
2018-04-01T01:02:55.182Z,6.05
2018-04-01T01:03:57.764Z,5.25
2018-04-01T01:05:00.350Z,5.60
2018-04-01T01:06:02.947Z,5.78
2018-04-01T01:07:05.512Z,5.37
2018-04-01T01:08:08.098Z,5.70
2018-04-01T01:09:11.507Z,6.32
2018-04-01T01:10:14.072Z,5.80
2018-04-01T01:11:16.640Z,6.07
2018-04-01T01:12:19.233Z,6.43
2018-04-01T01:13:22.577Z,5.75
2018-04-01T01:14:25.142Z,5.70
2018-04-01T01:15:27.753Z,6.50
2018-04-01T01:16:31.117Z,6.60
2018-04-01T01:17:33.687Z,6.15
2018-04-01T01:18:37.053Z,7.00
2018-04-01T01:19:39.935Z,6.72
2018-04-01T01:20:42.526Z,6.65
2018-04-01T01:21:45.855Z,6.20
2018-04-01T01:22:48.470Z,5.60
2018-04-01T01:23:51.831Z,6.75
2018-04-01T01:24:54.417Z,6.12
2018-04-01T01:25:58.020Z,7.15
2018-04-01T01:27:01.392Z,7.15
2018-04-01T01:28:03.978Z,7.27
2018-04-01T01:29:06.562Z,6.37
2018-04-01T01:30:09.190Z,6.50
2018-04-01T01:31:12.550Z,6.78
2018-04-01T01:32:15.141Z,6.62
2018-04-01T01:33:17.729Z,6.78
2018-04-01T01:34:20.323Z,6.30
2018-04-01T01:35:22.947Z,6.90
2018-04-01T01:36:26.333Z,7.28
2018-04-01T01:37:29.685Z,7.47
2018-04-01T01:38:32.321Z,7.07
2018-04-01T01:39:34.945Z,6.32
2018-04-01T01:40:37.569Z,6.85
2018-04-01T01:41:40.158Z,6.50
2018-04-01T01:42:42.761Z,7.18
2018-04-01T01:43:46.523Z,7.22
2018-04-01T01:44:49.114Z,7.60
2018-04-01T01:45:52.506Z,7.70
2018-04-01T01:46:55.906Z,7.82
2018-04-01T01:47:58.481Z,7.80
2018-04-01T01:49:01.074Z,8.20
2018-04-01T01:50:04.153Z,7.93
2018-04-01T01:51:06.755Z,7.93
2018-04-01T01:52:09.482Z,7.57
2018-04-01T01:53:12.066Z,8.15
2018-04-01T01:54:14.687Z,8.20
2018-04-01T01:55:17.330Z,7.78
2018-04-01T01:56:20.733Z,7.97
2018-04-01T01:57:24.150Z,7.75
2018-04-01T01:58:26.743Z,7.90
2018-04-01T01:59:29.374Z,7.57
2018-04-01T02:00:31.994Z,7.93
2018-04-01T02:01:34.581Z,8.00
2018-04-01T02:02:37.978Z,8.48
2018-04-01T02:03:40.565Z,8.73
2018-04-01T02:04:43.223Z,9.75
2018-04-01T02:05:45.887Z,9.67
2018-04-01T02:06:48.755Z,9.50
2018-04-01T02:07:51.346Z,10.10
2018-04-01T02:08:53.921Z,10.07
2018-04-01T02:09:56.541Z,10.23
2018-04-01T02:10:59.242Z,10.35
2018-04-01T02:12:01.837Z,10.38
2018-04-01T02:13:04.418Z,10.18
2018-04-01T02:14:07.024Z,10.50
2018-04-01T02:15:09.604Z,10.70
2018-04-01T02:16:12.239Z,11.25
2018-04-01T02:17:15.628Z,12.85
2018-04-01T02:18:19.090Z,11.82
2018-04-01T02:19:22.002Z,11.50
2018-04-01T02:20:24.591Z,11.30
2018-04-01T02:21:27.198Z,11.48
2018-04-01T02:22:29.781Z,11.80
2018-04-01T02:23:33.153Z,11.50
2018-04-01T02:24:35.833Z,10.37
2018-04-01T02:25:38.471Z,10.48
2018-04-01T02:26:41.066Z,9.90
2018-04-01T02:27:43.647Z,10.35
2018-04-01T02:28:47.018Z,9.50
2018-04-01T02:29:49.690Z,9.52
2018-04-01T02:30:53.112Z,9.90
2018-04-01T02:31:56.109Z,8.90
2018-04-01T02:32:58.685Z,9.25
2018-04-01T02:34:01.320Z,9.30
2018-04-01T02:35:03.972Z,8.73
2018-04-01T02:36:07.331Z,8.77
2018-04-01T02:37:09.923Z,8.80
2018-04-01T02:38:13.259Z,8.30
2018-04-01T02:39:15.831Z,8.85
2018-04-01T02:40:18.432Z,7.27
2018-04-01T02:42:20.999Z,8.50
2018-04-01T02:43:23.727Z,9.27
2018-04-01T02:44:26.306Z,9.02
2018-04-01T02:45:28.894Z,10.40
2018-04-01T02:46:32.271Z,9.50
2018-04-01T02:47:34.864Z,9.25
2018-04-01T02:48:38.205Z,10.43
2018-04-01T02:49:40.865Z,9.02
2018-04-01T02:50:43.445Z,9.70
2018-04-01T02:51:46.062Z,9.73
2018-04-01T02:52:48.713Z,9.60
2018-04-01T02:53:52.073Z,9.25
2018-04-01T02:54:54.681Z,9.45
2018-04-01T02:55:57.269Z,9.10
2018-04-01T02:56:59.860Z,8.93
2018-04-01T02:58:02.451Z,9.30
2018-04-01T02:59:05.854Z,9.68
2018-04-01T03:00:09.226Z,9.98
2018-04-01T03:01:12.609Z,9.07
2018-04-01T03:02:15.374Z,9.07
2018-04-01T03:03:18.009Z,9.20
2018-04-01T03:04:20.706Z,9.82
2018-04-01T03:05:24.240Z,10.05
2018-04-01T03:06:26.828Z,9.75
2018-04-01T03:07:29.627Z,9.95
2018-04-01T03:08:32.211Z,10.50
2018-04-01T03:09:35.605Z,9.40
2018-04-01T03:10:39.046Z,11.80
2018-04-01T03:11:41.679Z,11.05
2018-04-01T03:12:44.278Z,10.80
2018-04-01T03:13:46.902Z,10.63
2018-04-01T03:14:50.269Z,10.73
2018-04-01T03:15:53.666Z,10.13
2018-04-01T03:16:57.055Z,11.10
2018-04-01T03:18:00.451Z,10.90
2018-04-01T03:19:03.041Z,10.27
2018-04-01T03:20:05.646Z,10.90
2018-04-01T03:21:08.241Z,10.38
2018-04-01T03:22:11.658Z,10.77
2018-04-01T03:23:14.276Z,10.70
2018-04-01T03:24:17.653Z,10.50
2018-04-01T03:25:24.684Z,10.95
2018-04-01T03:26:27.409Z,11.20
2018-04-01T03:27:30.756Z,11.20
2018-04-01T03:28:33.331Z,11.63
2018-04-01T03:29:36.721Z,10.68
2018-04-01T03:30:39.372Z,10.90
2018-04-01T03:31:41.956Z,11.12
2018-04-01T03:32:44.547Z,10.35
2018-04-01T03:33:47.994Z,10.77
2018-04-01T03:34:50.557Z,11.60
2018-04-01T03:35:53.162Z,10.63
2018-04-01T03:36:56.872Z,10.88
2018-04-01T03:38:00.227Z,10.30
2018-04-01T03:39:02.898Z,11.12
2018-04-01T03:40:05.535Z,11.65
2018-04-01T03:41:08.140Z,11.05
2018-04-01T03:42:11.504Z,11.23
2018-04-01T03:43:14.563Z,11.38
2018-04-01T03:44:17.163Z,11.60
2018-04-01T03:45:19.833Z,12.60
2018-04-01T03:46:22.422Z,12.20
2018-04-01T03:47:25.007Z,10.68
2018-04-01T03:48:27.601Z,12.40
2018-04-01T03:49:30.538Z,12.43
2018-04-01T03:50:33.119Z,13.13
2018-04-01T03:51:35.695Z,13.15
2018-04-01T03:52:38.302Z,11.93
2018-04-01T03:53:40.887Z,13.30
2018-04-01T03:54:44.284Z,12.70
2018-04-01T03:55:46.899Z,13.00
2018-04-01T03:56:49.473Z,13.52
2018-04-01T03:57:52.258Z,14.45
2018-04-01T03:58:54.849Z,14.10
2018-04-01T03:59:58.232Z,14.40
2018-04-01T04:01:01.978Z,14.02
2018-04-01T04:02:04.573Z,13.00
2018-04-01T04:03:07.227Z,14.57
2018-04-01T04:04:09.811Z,15.03
2018-04-01T04:05:12.462Z,14.35
2018-04-01T04:06:15.103Z,14.20
2018-04-01T04:07:17.998Z,14.00
2018-04-01T04:08:20.644Z,13.90
2018-04-01T04:09:23.261Z,14.02
2018-04-01T04:10:25.897Z,14.30
2018-04-01T04:11:28.479Z,19.13
2018-04-01T04:12:31.067Z,16.80
2018-04-01T04:13:34.762Z,14.80
2018-04-01T04:14:38.143Z,14.82
2018-04-01T04:15:41.505Z,13.90
2018-04-01T04:16:44.109Z,13.53
2018-04-01T04:17:47.475Z,13.70
2018-04-01T04:18:50.064Z,15.43
2018-04-01T04:19:53.037Z,14.52
2018-04-01T04:20:56.374Z,15.50
2018-04-01T04:21:58.982Z,14.30
2018-04-01T04:23:02.359Z,16.10
2018-04-01T04:24:05.724Z,14.85
2018-04-01T04:25:08.659Z,14.40
2018-04-01T04:26:11.344Z,15.00
2018-04-01T04:27:14.018Z,15.00
2018-04-01T04:28:16.588Z,15.05
2018-04-01T04:29:19.174Z,15.07
2018-04-01T04:30:21.829Z,16.23
2018-04-01T04:31:24.864Z,15.00
2018-04-01T04:32:27.429Z,15.77
2018-04-01T04:33:30.035Z,15.73
2018-04-01T04:34:32.635Z,15.38
2018-04-01T04:35:36.003Z,15.35
2018-04-01T04:36:38.596Z,16.60
2018-04-01T04:37:42.275Z,15.50
2018-04-01T04:38:45.627Z,16.17
2018-04-01T04:39:48.195Z,16.00
2018-04-01T04:40:50.793Z,15.82
2018-04-01T04:41:54.144Z,16.00
2018-04-01T04:42:56.735Z,15.00
2018-04-01T04:43:59.719Z,15.35
2018-04-01T04:45:03.127Z,16.37
2018-04-01T04:46:05.772Z,16.67
2018-04-01T04:47:09.135Z,15.02
2018-04-01T04:48:11.707Z,15.50
2018-04-01T04:49:14.363Z,16.10
2018-04-01T04:50:16.967Z,15.63
2018-04-01T04:51:20.319Z,14.60
2018-04-01T04:52:22.909Z,16.02
2018-04-01T04:53:26.278Z,15.40
2018-04-01T04:54:28.855Z,15.27
2018-04-01T04:55:31.812Z,14.90
2018-04-01T04:56:36.201Z,15.25
2018-04-01T04:57:38.767Z,18.35
2018-04-01T04:58:41.374Z,14.90
2018-04-01T04:59:43.981Z,14.80
2018-04-01T05:00:46.559Z,13.93
2018-04-01T05:01:49.386Z,13.52
2018-04-01T05:02:52.033Z,13.52
2018-04-01T05:03:54.606Z,14.52
2018-04-01T05:04:57.213Z,16.40
2018-04-01T05:05:59.784Z,15.25
2018-04-01T05:07:02.407Z,14.82
2018-04-01T05:08:05.453Z,14.23
2018-04-01T05:09:08.042Z,13.45
2018-04-01T05:10:10.634Z,13.73
2018-04-01T05:11:13.971Z,13.52
2018-04-01T05:12:17.340Z,13.70
2018-04-01T05:13:19.932Z,13.57
2018-04-01T05:14:22.514Z,14.20
2018-04-01T05:15:25.101Z,13.80
2018-04-01T05:16:28.462Z,15.48
2018-04-01T05:17:31.049Z,18.85
2018-04-01T05:18:34.393Z,17.20
2018-04-01T05:19:37.037Z,14.85
2018-04-01T05:20:39.623Z,15.02
2018-04-01T05:21:42.246Z,15.00
2018-04-01T05:22:45.623Z,13.85
2018-04-01T05:23:49.029Z,15.10
2018-04-01T05:24:51.618Z,13.82
2018-04-01T05:25:54.215Z,14.10
2018-04-01T05:26:56.816Z,13.27
2018-04-01T05:28:00.211Z,16.60
2018-04-01T05:29:02.818Z,20.25
2018-04-01T05:30:05.421Z,27.17
2018-04-01T05:31:08.775Z,20.40
2018-04-01T05:32:11.361Z,19.30
2018-04-01T05:33:13.955Z,16.40
2018-04-01T05:34:17.319Z,16.08
2018-04-01T05:35:20.013Z,15.43
2018-04-01T05:36:23.391Z,15.60
2018-04-01T05:37:26.814Z,15.57
2018-04-01T05:38:29.403Z,15.70
2018-04-01T05:39:32.224Z,14.95
2018-04-01T05:40:34.853Z,14.77
2018-04-01T05:41:37.465Z,15.77
2018-04-01T05:42:40.069Z,14.95
2018-04-01T05:43:42.677Z,14.60
2018-04-01T05:44:46.036Z,15.80
2018-04-01T05:45:49.040Z,17.00
2018-04-01T05:46:52.389Z,17.37
2018-04-01T05:47:54.985Z,18.30
2018-04-01T05:48:57.600Z,17.85
2018-04-01T05:50:00.235Z,17.85
2018-04-01T05:51:02.822Z,15.65
2018-04-01T05:52:05.673Z,14.40
2018-04-01T05:53:09.154Z,14.07
2018-04-01T05:54:12.566Z,15.18
2018-04-01T05:55:15.412Z,13.40
2018-04-01T05:56:18.840Z,14.73
2018-04-01T05:57:21.629Z,27.98
2018-04-01T05:58:24.640Z,22.42
2018-04-01T05:59:28.950Z,15.13
2018-04-01T06:00:31.681Z,14.27
2018-04-01T06:01:34.354Z,13.75
2018-04-01T06:02:36.948Z,13.95
2018-04-01T06:03:40.504Z,14.93
2018-04-01T06:04:43.109Z,14.32
2018-04-01T06:05:46.614Z,15.05
2018-04-01T06:06:50.376Z,14.25
2018-04-01T06:07:53.007Z,15.07
2018-04-01T06:08:55.699Z,13.95
2018-04-01T06:09:59.422Z,14.65
2018-04-01T06:11:02.810Z,14.40
2018-04-01T06:12:07.107Z,15.60
2018-04-01T06:13:09.786Z,16.00
2018-04-01T06:14:12.501Z,14.95
2018-04-01T06:15:15.091Z,15.30
2018-04-01T06:16:17.990Z,15.20
2018-04-01T06:17:20.661Z,16.37
2018-04-01T06:18:23.389Z,16.15
2018-04-01T06:19:26.061Z,15.00
2018-04-01T06:20:28.724Z,15.10
2018-04-01T06:21:31.331Z,16.00
2018-04-01T06:22:34.926Z,15.65
2018-04-01T06:23:38.288Z,16.55
2018-04-01T06:24:40.911Z,15.98
2018-04-01T06:25:43.545Z,15.07
2018-04-01T06:26:47.195Z,15.07
2018-04-01T06:27:49.849Z,14.68
2018-04-01T06:28:53.184Z,15.85
2018-04-01T06:29:55.763Z,16.37
2018-04-01T06:30:59.253Z,16.27
2018-04-01T06:32:02.657Z,14.77
2018-04-01T06:33:05.276Z,14.20
2018-04-01T06:34:08.329Z,15.23
2018-04-01T06:35:10.945Z,14.13
2018-04-01T06:36:14.520Z,14.52
2018-04-01T06:37:17.905Z,16.20
2018-04-01T06:38:20.521Z,14.57
2018-04-01T06:39:23.141Z,15.90
2018-04-01T06:40:26.028Z,14.68
2018-04-01T06:41:29.401Z,16.75
2018-04-01T06:42:32.014Z,17.50
2018-04-01T06:43:34.639Z,18.27
2018-04-01T06:44:37.212Z,17.90
2018-04-01T06:45:39.803Z,18.10
2018-04-01T06:46:42.593Z,18.95
2018-04-01T06:47:45.222Z,18.85
2018-04-01T06:48:48.717Z,19.75
2018-04-01T06:49:51.340Z,21.17
2018-04-01T06:50:53.961Z,20.85
2018-04-01T06:51:57.323Z,21.05
2018-04-01T06:53:00.944Z,19.12
2018-04-01T06:54:03.536Z,14.23
2018-04-01T06:55:06.142Z,12.02
2018-04-01T06:56:08.904Z,11.30
2018-04-01T06:57:12.290Z,10.10
2018-04-01T06:58:15.305Z,10.40
2018-04-01T06:59:17.994Z,9.60
2018-04-01T07:00:20.598Z,10.20
2018-04-01T07:01:23.220Z,11.05
2018-04-01T07:02:25.899Z,10.00
2018-04-01T07:03:28.891Z,10.90
2018-04-01T07:04:31.589Z,10.98
2018-04-01T07:05:34.237Z,9.60
2018-04-01T07:06:36.839Z,9.27
2018-04-01T07:07:40.370Z,8.85
2018-04-01T07:08:42.969Z,8.10
2018-04-01T07:09:45.620Z,7.75
2018-04-01T07:10:49.355Z,7.30
2018-04-01T07:11:52.719Z,7.40
2018-04-01T07:12:55.293Z,7.40
2018-04-01T07:13:58.330Z,7.40
2018-04-01T07:15:00.976Z,7.00
2018-04-01T07:16:03.577Z,6.85
2018-04-01T07:17:06.378Z,6.82
2018-04-01T07:18:09.782Z,6.78
2018-04-01T07:19:13.193Z,6.93
2018-04-01T07:20:15.934Z,7.05
2018-04-01T07:21:19.393Z,6.60
2018-04-01T07:22:21.960Z,6.72
2018-04-01T07:23:24.769Z,6.55
2018-04-01T07:24:27.387Z,6.95
2018-04-01T07:25:29.970Z,6.70
2018-04-01T07:26:33.111Z,6.37
2018-04-01T07:27:35.720Z,7.00
2018-04-01T07:28:38.370Z,6.57
2018-04-01T07:29:40.977Z,33.38
2018-04-01T07:30:44.366Z,18.12
2018-04-01T07:31:47.867Z,6.40
2018-04-01T07:32:50.730Z,6.62
2018-04-01T07:33:54.091Z,6.70
2018-04-01T07:34:56.672Z,6.82
2018-04-01T07:36:00.066Z,5.65
2018-04-01T07:37:02.681Z,6.23
2018-04-01T07:38:05.307Z,5.53
2018-04-01T07:39:09.112Z,5.70
2018-04-01T07:40:11.725Z,6.12
2018-04-01T07:41:14.390Z,5.72
2018-04-01T07:42:16.995Z,5.87
2018-04-01T07:43:20.388Z,6.60
2018-04-01T07:44:23.766Z,6.78
2018-04-01T07:45:27.115Z,5.35
2018-04-01T07:46:29.792Z,5.50
2018-04-01T07:47:32.387Z,5.43
2018-04-01T07:48:35.740Z,6.00
2018-04-01T07:49:38.313Z,6.43
2018-04-01T07:50:41.233Z,5.80
2018-04-01T07:51:43.843Z,6.93
2018-04-01T07:52:46.462Z,6.60
2018-04-01T07:53:49.075Z,6.50
2018-04-01T07:54:51.692Z,6.75
2018-04-01T07:55:55.030Z,7.22
2018-04-01T07:56:58.042Z,6.93
2018-04-01T07:58:01.397Z,7.27
2018-04-01T07:59:04.012Z,7.50
2018-04-01T08:00:06.566Z,7.53
2018-04-01T08:01:09.944Z,9.07
2018-04-01T08:02:13.325Z,8.60
2018-04-01T08:03:17.190Z,8.50
2018-04-01T08:04:19.816Z,8.50
2018-04-01T08:05:22.492Z,8.93
2018-04-01T08:06:25.108Z,8.93
2018-04-01T08:07:27.839Z,8.88
2018-04-01T08:08:30.453Z,9.60
2018-04-01T08:09:33.099Z,10.00
2018-04-01T08:10:35.721Z,10.20
2018-04-01T08:11:38.416Z,10.50
2018-04-01T08:12:41.049Z,9.90
2018-04-01T08:13:44.466Z,10.73
2018-04-01T08:14:47.417Z,11.20
2018-04-01T08:15:50.013Z,11.98
2018-04-01T08:16:52.675Z,11.80
2018-04-01T08:17:55.282Z,12.45
2018-04-01T08:18:58.702Z,11.90
2018-04-01T08:20:02.092Z,12.20
2018-04-01T08:21:05.102Z,12.50
2018-04-01T08:22:07.823Z,12.90
2018-04-01T08:23:11.257Z,13.82
2018-04-01T08:24:13.930Z,14.23
2018-04-01T08:25:16.541Z,14.73
2018-04-01T08:26:19.963Z,15.70
2018-04-01T08:27:22.974Z,16.05
2018-04-01T08:28:25.583Z,16.00
2018-04-01T08:29:28.934Z,15.80
2018-04-01T08:30:31.521Z,18.35
2018-04-01T08:31:34.913Z,16.80
2018-04-01T08:32:38.282Z,17.95
2018-04-01T08:33:42.038Z,17.73
2018-04-01T08:34:44.634Z,17.40
2018-04-01T08:35:48.017Z,16.85
2018-04-01T08:36:50.619Z,18.08
2018-04-01T08:37:54.080Z,18.50
2018-04-01T08:38:57.090Z,19.15
2018-04-01T08:39:59.757Z,18.90
2018-04-01T08:41:02.346Z,19.98
2018-04-01T08:42:04.991Z,20.50
2018-04-01T08:43:07.581Z,20.92
2018-04-01T08:44:10.328Z,20.27
2018-04-01T08:45:13.285Z,20.20
2018-04-01T08:46:16.618Z,19.52
2018-04-01T08:47:19.216Z,19.80
2018-04-01T08:48:21.806Z,20.48
2018-04-01T08:49:25.170Z,20.77
2018-04-01T08:50:27.799Z,20.80
2018-04-01T08:51:30.640Z,20.02
2018-04-01T08:52:34.087Z,20.92
2018-04-01T08:53:36.706Z,21.60
2018-04-01T08:54:39.290Z,21.40
2018-04-01T08:55:41.875Z,22.53
2018-04-01T08:56:44.502Z,21.52
2018-04-01T08:57:47.713Z,22.13
2018-04-01T08:58:50.855Z,21.65
2018-04-01T08:59:53.519Z,22.25
2018-04-01T09:00:56.882Z,23.50
2018-04-01T09:01:59.558Z,24.63
2018-04-01T09:03:03.145Z,24.45
2018-04-01T09:04:06.506Z,22.77
2018-04-01T09:05:09.249Z,22.90
2018-04-01T09:06:11.848Z,23.87
2018-04-01T09:07:14.445Z,22.70
2018-04-01T09:08:17.834Z,23.70
2018-04-01T09:09:21.240Z,24.83
2018-04-01T09:10:23.891Z,24.50
2018-04-01T09:11:27.253Z,24.30
2018-04-01T09:12:30.616Z,24.58
2018-04-01T09:13:33.242Z,23.40
2018-04-01T09:14:35.921Z,24.40
2018-04-01T09:15:38.547Z,22.90
2018-04-01T09:16:41.991Z,24.23
2018-04-01T09:17:44.600Z,24.23
2018-04-01T09:18:47.234Z,24.98
2018-04-01T09:19:49.836Z,25.52
2018-04-01T09:20:53.206Z,26.27
2018-04-01T09:21:55.793Z,23.77
2018-04-01T09:22:58.399Z,23.70
2018-04-01T09:24:03.162Z,25.30
2018-04-01T09:25:05.803Z,24.17
2018-04-01T09:26:08.582Z,24.08
2018-04-01T09:27:11.433Z,22.70
2018-04-01T09:28:14.173Z,19.48
2018-04-01T09:29:17.749Z,19.62
2018-04-01T09:30:21.244Z,19.00
2018-04-01T09:31:24.122Z,17.95
2018-04-01T09:32:26.723Z,18.15
2018-04-01T09:33:29.321Z,18.63
2018-04-01T09:34:31.928Z,18.40
2018-04-01T09:35:35.288Z,16.70
2018-04-01T09:36:38.042Z,16.45
2018-04-01T09:37:41.764Z,16.55
2018-04-01T09:38:45.167Z,16.60
2018-04-01T09:39:47.768Z,15.90
2018-04-01T09:40:50.583Z,17.05
2018-04-01T09:41:54.122Z,16.27
2018-04-01T09:42:56.730Z,18.50
2018-04-01T09:43:59.622Z,21.92
2018-04-01T09:45:02.986Z,19.70
2018-04-01T09:46:06.368Z,18.77
2018-04-01T09:47:09.023Z,17.92
2018-04-01T09:48:11.712Z,17.33
2018-04-01T09:49:15.084Z,17.77
2018-04-01T09:50:18.203Z,17.23
2018-04-01T09:51:20.826Z,17.33
2018-04-01T09:52:25.059Z,19.15
2018-04-01T09:53:27.783Z,20.00
2018-04-01T09:54:30.410Z,19.70
2018-04-01T09:55:33.402Z,19.37
2018-04-01T09:56:36.132Z,19.83
2018-04-01T09:57:38.742Z,19.33
2018-04-01T09:58:41.482Z,19.80
2018-04-01T09:59:44.881Z,18.92
2018-04-01T10:00:54.586Z,20.23
2018-04-01T10:02:00.631Z,20.27
2018-04-01T10:03:05.295Z,20.55
2018-04-01T10:04:09.154Z,21.17
2018-04-01T10:05:13.298Z,21.52
2018-04-01T10:06:17.293Z,22.27
2018-04-01T10:07:21.150Z,22.50
2018-04-01T10:08:25.053Z,22.17
2018-04-01T10:09:29.765Z,23.05
2018-04-01T10:10:33.789Z,22.70
2018-04-01T10:11:37.892Z,22.58
2018-04-01T10:12:41.931Z,23.02
2018-04-01T10:13:46.175Z,23.38
2018-04-01T10:14:50.984Z,25.15
2018-04-01T10:15:55.034Z,24.30
2018-04-01T10:16:59.053Z,25.70
2018-04-01T10:18:03.395Z,24.98
2018-04-01T10:19:07.454Z,26.05
2018-04-01T10:20:11.583Z,26.45
2018-04-01T10:21:15.637Z,25.60
2018-04-01T10:22:19.658Z,26.60
2018-04-01T10:23:23.777Z,28.00
2018-04-01T10:24:27.666Z,27.87
2018-04-01T10:25:31.606Z,28.40
2018-04-01T10:26:36.231Z,29.42
2018-04-01T10:27:40.925Z,29.17
2018-04-01T10:28:44.822Z,29.33
2018-04-01T10:29:48.922Z,29.67
2018-04-01T10:30:53.791Z,30.00
2018-04-01T10:31:57.672Z,30.58
2018-04-01T10:33:01.706Z,30.58
2018-04-01T10:34:05.753Z,30.35
2018-04-01T10:35:11.601Z,29.12
2018-04-01T10:36:17.265Z,30.10
2018-04-01T10:37:22.222Z,31.33
2018-04-01T10:38:26.254Z,31.98
2018-04-01T10:39:31.477Z,31.30
2018-04-01T10:40:35.339Z,32.17
2018-04-01T10:41:39.331Z,32.30
2018-04-01T10:42:43.660Z,31.55
2018-04-01T10:43:47.865Z,33.78
2018-04-01T10:44:51.910Z,30.88
2018-04-01T10:45:56.906Z,31.48
2018-04-01T10:47:02.071Z,32.42
2018-04-01T10:48:06.422Z,31.35
2018-04-01T10:49:10.470Z,31.92
2018-04-01T10:50:14.677Z,31.92
2018-04-01T10:51:18.649Z,31.27
2018-04-01T10:52:22.783Z,30.23
2018-04-01T10:53:26.870Z,30.52
2018-04-01T10:54:30.584Z,29.05
2018-04-01T10:55:33.439Z,31.77
2018-04-01T10:56:36.789Z,31.35
2018-04-01T10:57:39.425Z,30.77
2018-04-01T10:58:42.038Z,31.10
2018-04-01T10:59:44.734Z,30.85
2018-04-01T11:00:49.030Z,30.42
2018-04-01T11:01:51.922Z,31.85
2018-04-01T11:02:54.647Z,31.65
2018-04-01T11:03:58.054Z,30.12
2018-04-01T11:05:01.401Z,30.73
2018-04-01T11:06:04.017Z,28.08
2018-04-01T11:07:07.366Z,28.23
2018-04-01T11:08:10.043Z,28.10
2018-04-01T11:09:12.628Z,28.38
2018-04-01T11:10:15.973Z,28.92
2018-04-01T11:11:18.573Z,28.40
2018-04-01T11:12:22.349Z,28.50
2018-04-01T11:13:24.944Z,28.02
2018-04-01T11:14:28.292Z,27.02
2018-04-01T11:15:30.918Z,26.25
2018-04-01T11:16:33.508Z,26.40
2018-04-01T11:17:36.140Z,24.20
2018-04-01T11:18:38.993Z,23.33
2018-04-01T11:19:42.378Z,22.70
2018-04-01T11:20:45.773Z,22.08
2018-04-01T11:21:49.255Z,20.80
2018-04-01T11:22:52.663Z,19.15
2018-04-01T11:23:55.325Z,19.08
2018-04-01T11:24:58.327Z,18.87
2018-04-01T11:26:00.923Z,20.12
2018-04-01T11:27:04.373Z,21.17
2018-04-01T11:28:06.968Z,20.52
2018-04-01T11:29:09.620Z,21.00
2018-04-01T11:30:12.243Z,20.83
2018-04-01T11:31:15.621Z,19.90
2018-04-01T11:32:19.039Z,20.25
2018-04-01T11:33:21.661Z,21.27
2018-04-01T11:34:24.284Z,20.02
2018-04-01T11:35:26.863Z,20.02
2018-04-01T11:36:29.699Z,20.50
2018-04-01T11:37:32.655Z,21.87
2018-04-01T11:38:36.111Z,22.15
2018-04-01T11:39:38.714Z,21.60
2018-04-01T11:40:42.073Z,21.08
2018-04-01T11:41:45.859Z,22.00
2018-04-01T11:42:48.459Z,22.92
2018-04-01T11:43:51.953Z,21.12
2018-04-01T11:44:55.370Z,24.37
2018-04-01T11:45:57.959Z,22.08
2018-04-01T11:47:00.605Z,21.90
2018-04-01T11:48:03.254Z,21.10
2018-04-01T11:49:05.869Z,21.20
2018-04-01T11:50:08.509Z,21.58
2018-04-01T11:51:11.109Z,21.00
2018-04-01T11:52:13.810Z,21.08
2018-04-01T11:53:16.441Z,20.88
2018-04-01T11:54:19.040Z,21.02
2018-04-01T11:55:22.420Z,21.20
2018-04-01T11:56:24.997Z,21.92
2018-04-01T11:57:28.365Z,21.75
2018-04-01T11:58:31.010Z,21.77
2018-04-01T11:59:33.653Z,22.15
2018-04-01T12:00:36.283Z,22.27
2018-04-01T12:01:39.655Z,22.42
2018-04-01T12:02:43.066Z,23.35
2018-04-01T12:03:46.426Z,22.58
2018-04-01T12:04:49.517Z,22.40
2018-04-01T12:05:52.897Z,20.52
2018-04-01T12:06:56.261Z,20.92
2018-04-01T12:07:58.855Z,21.48
2018-04-01T12:09:02.278Z,20.42
2018-04-01T12:10:04.901Z,20.48
2018-04-01T12:11:08.504Z,22.30
2018-04-01T12:12:12.077Z,21.95
2018-04-01T12:13:14.801Z,22.90
2018-04-01T12:14:17.503Z,22.85
2018-04-01T12:15:20.149Z,21.90
2018-04-01T12:16:22.780Z,23.00
2018-04-01T12:17:25.662Z,22.90
2018-04-01T12:18:28.313Z,23.15
2018-04-01T12:19:31.794Z,22.15
2018-04-01T12:20:34.433Z,23.20
2018-04-01T12:21:37.830Z,23.27
2018-04-01T12:22:40.409Z,22.85
2018-04-01T12:23:43.837Z,23.15
2018-04-01T12:24:46.426Z,22.33
2018-04-01T12:25:49.078Z,22.42
2018-04-01T12:26:51.777Z,22.30
2018-04-01T12:27:54.583Z,24.85
2018-04-01T12:28:57.307Z,24.03
2018-04-01T12:29:59.890Z,23.38
2018-04-01T12:31:02.486Z,24.08
2018-04-01T12:32:05.869Z,24.23
2018-04-01T12:33:09.292Z,35.92
2018-04-01T12:34:11.954Z,24.40
2018-04-01T12:35:14.859Z,24.27
2018-04-01T12:36:17.641Z,22.75
2018-04-01T12:37:20.324Z,23.42
2018-04-01T12:38:24.282Z,23.87
2018-04-01T12:39:27.790Z,23.30
2018-04-01T12:40:30.466Z,25.30
2018-04-01T12:41:34.347Z,24.27
2018-04-01T12:42:37.203Z,24.27
2018-04-01T12:43:39.844Z,25.00
2018-04-01T12:44:42.471Z,23.98
2018-04-01T12:45:45.219Z,24.45
2018-04-01T12:46:47.942Z,24.60
2018-04-01T12:47:50.577Z,26.20
2018-04-01T12:48:53.255Z,26.13
2018-04-01T12:49:55.926Z,24.25
2018-04-01T12:50:59.305Z,25.23
2018-04-01T12:52:01.922Z,26.12
2018-04-01T12:53:04.749Z,27.67
2018-04-01T12:54:07.334Z,25.52
2018-04-01T12:55:10.831Z,25.42
2018-04-01T12:56:13.473Z,26.45
2018-04-01T12:57:16.847Z,25.90
2018-04-01T12:58:19.446Z,26.52
2018-04-01T12:59:23.174Z,27.33
2018-04-01T13:00:25.904Z,28.65
2018-04-01T13:01:29.274Z,26.37
2018-04-01T13:02:31.888Z,28.60
2018-04-01T13:03:34.501Z,28.33
2018-04-01T13:04:37.114Z,26.50
2018-04-01T13:05:39.706Z,26.83
2018-04-01T13:06:42.305Z,26.95
2018-04-01T13:07:44.884Z,28.73
2018-04-01T13:08:48.356Z,29.15
2018-04-01T13:09:50.963Z,34.80
2018-04-01T13:10:53.858Z,33.30
2018-04-01T13:11:56.779Z,33.20
2018-04-01T13:12:59.394Z,41.60
2018-04-01T13:14:02.005Z,37.35
2018-04-01T13:15:04.684Z,40.10
2018-04-01T13:16:07.496Z,29.70
2018-04-01T13:17:10.077Z,33.38
2018-04-01T13:18:12.685Z,31.45
2018-04-01T13:19:15.296Z,31.40
2018-04-01T13:20:18.166Z,29.27
2018-04-01T13:21:20.822Z,28.52
2018-04-01T13:22:23.482Z,29.20
2018-04-01T13:23:27.096Z,27.90
2018-04-01T13:24:29.697Z,29.87
2018-04-01T13:25:32.318Z,30.80
2018-04-01T13:26:35.045Z,37.00
2018-04-01T13:27:37.671Z,42.83
2018-04-01T13:28:40.262Z,31.85
2018-04-01T13:29:43.141Z,28.80
2018-04-01T13:30:45.780Z,29.12
2018-04-01T13:31:48.393Z,28.83
2018-04-01T13:32:50.973Z,28.75
2018-04-01T13:33:54.349Z,29.50
2018-04-01T13:34:56.951Z,30.90
2018-04-01T13:35:59.562Z,30.70
2018-04-01T13:37:02.147Z,30.00
2018-04-01T13:38:04.793Z,30.67
2018-04-01T13:39:07.386Z,31.58
2018-04-01T13:40:10.739Z,30.13